CYGQ

Geraldton Greenstone Regional Airport

Geraldton, Ontario, Canada
METAR CYGQ 220500Z 20005KT 15SM SCT087 SCT110 BKN170 16/04 A2989 RMK AC3AC1AC3 SLP126 DENSITY ALT 1600FT
Observed Flight Rules
Jun-22 @ 05:00 UTC (47 minutes ago) Visual Flight Rules
Wind Visibility Clouds
200° at 5 knots 15 miles
  • Scattered at 8,700' AGL
  • Scattered at 11,000' AGL
  • Broken at 17,000' AGL
Temperatures Readings
Current 16°C / 61°F
Dewpoint 4°C / 39°F
Humidity 45%
Altimeter 29.89" Hg
Pressure 1012.6 hPa
Elevation 351
METAR CYGQ 220500Z 20005KT 15SM SCT087 SCT110 BKN170 16/04 A2989 RMK AC3AC1AC3 SLP126 DENSITY ALT 1600FT
Observed Flight Rules
Jun-22 @ 05:00 UTC
(47 minutes ago)
VFR
Wind Visibility
200° at 5 knots 15 miles
Clouds
  • Scattered at 8,700' AGL
  • Scattered at 11,000' AGL
  • Broken at 17,000' AGL
Temperature Dewpoint
16°C / 61°F 4°C / 39°F
Humidity Altimeter Pressure
45% 29.89" Hg 1012.6 hPa